createdAt,value
2019-05-16T00:00:32.087Z,0.00
2019-05-16T00:03:32.072Z,0.00
2019-05-16T00:06:32.054Z,0.00
2019-05-16T00:09:31.988Z,0.00
2019-05-16T00:12:31.978Z,0.00
2019-05-16T00:15:31.923Z,0.00
2019-05-16T00:18:31.900Z,0.00
2019-05-16T00:21:31.848Z,0.00
2019-05-16T00:24:31.851Z,0.00
2019-05-16T00:27:31.820Z,0.00
2019-05-16T00:30:31.756Z,0.00
2019-05-16T00:33:31.769Z,0.00
2019-05-16T00:36:31.686Z,0.00
2019-05-16T00:39:31.688Z,0.00
2019-05-16T00:42:31.623Z,0.00
2019-05-16T00:45:31.607Z,0.00
2019-05-16T00:48:31.586Z,0.00
2019-05-16T00:51:31.523Z,0.00
2019-05-16T00:54:31.508Z,0.00
2019-05-16T00:57:31.459Z,0.00
2019-05-16T01:00:31.437Z,0.00
2019-05-16T01:03:31.387Z,0.00
2019-05-16T01:06:31.381Z,0.00
2019-05-16T01:09:31.355Z,0.00
2019-05-16T01:12:31.290Z,0.00
2019-05-16T01:15:31.281Z,0.00
2019-05-16T01:18:31.221Z,0.00
2019-05-16T01:21:31.209Z,0.00
2019-05-16T01:24:31.162Z,0.00
2019-05-16T01:27:31.139Z,0.00
2019-05-16T01:30:31.123Z,0.00
2019-05-16T01:33:31.053Z,0.00
2019-05-16T01:36:36.772Z,0.00
2019-05-16T01:39:31.995Z,0.00
2019-05-16T01:42:30.973Z,0.00
2019-05-16T01:45:30.924Z,0.00
2019-05-16T01:48:30.912Z,0.00
2019-05-16T01:51:30.870Z,0.00
2019-05-16T01:54:30.845Z,0.00
2019-05-16T01:57:30.809Z,0.00
2019-05-16T02:00:37.151Z,0.00
2019-05-16T02:03:31.751Z,0.00
2019-05-16T02:06:30.698Z,0.00
2019-05-16T02:09:30.680Z,0.00
2019-05-16T02:12:30.627Z,0.00
2019-05-16T02:15:30.613Z,0.00
2019-05-16T02:18:30.561Z,0.00
2019-05-16T02:21:30.549Z,0.00
2019-05-16T02:24:30.516Z,0.00
2019-05-16T02:27:30.479Z,0.00
2019-05-16T02:30:31.531Z,0.00
2019-05-16T02:33:31.679Z,0.00
2019-05-16T02:36:31.377Z,0.00
2019-05-16T02:39:30.793Z,0.00
2019-05-16T02:42:31.218Z,0.00
2019-05-16T02:45:32.488Z,0.00
2019-05-16T02:48:31.808Z,0.00
2019-05-16T02:51:31.666Z,0.00
2019-05-16T02:54:31.571Z,0.00
2019-05-16T02:57:31.724Z,0.00
2019-05-16T03:00:30.921Z,0.00
2019-05-16T03:03:31.651Z,4.00
2019-05-16T03:06:32.120Z,4.00
2019-05-16T03:09:30.548Z,4.00
2019-05-16T03:12:31.023Z,8.00
2019-05-16T03:15:31.006Z,8.00
2019-05-16T03:18:31.019Z,12.00
2019-05-16T03:21:30.817Z,20.00
2019-05-16T03:24:30.975Z,28.00
2019-05-16T03:27:30.576Z,36.00
2019-05-16T03:30:35.054Z,40.00
2019-05-16T03:33:35.197Z,60.00
2019-05-16T03:36:34.576Z,80.00
2019-05-16T03:39:31.355Z,108.00
2019-05-16T03:42:31.094Z,132.00
2019-05-16T03:45:31.920Z,172.00
2019-05-16T03:48:31.506Z,212.00
2019-05-16T03:51:30.909Z,264.00
2019-05-16T03:54:31.381Z,360.00
2019-05-16T03:57:30.712Z,448.00
2019-05-16T04:00:31.638Z,580.00
2019-05-16T04:03:32.974Z,672.00
2019-05-16T04:06:31.154Z,764.00
2019-05-16T04:09:31.500Z,812.00
2019-05-16T04:12:30.867Z,772.00
2019-05-16T04:15:31.124Z,720.00
2019-05-16T04:18:31.869Z,636.00
2019-05-16T04:21:32.249Z,596.00
2019-05-16T04:24:31.681Z,584.00
2019-05-16T04:27:30.934Z,592.00
2019-05-16T04:30:31.274Z,664.00
2019-05-16T04:33:30.942Z,784.00
2019-05-16T04:36:29.062Z,888.00
2019-05-16T04:39:31.922Z,1008.00
2019-05-16T04:42:31.116Z,1132.00
2019-05-16T04:45:31.694Z,1248.00
2019-05-16T04:48:31.017Z,1336.00
2019-05-16T04:51:30.681Z,1376.00
2019-05-16T04:54:30.788Z,1500.00
2019-05-16T04:57:31.322Z,1560.00
2019-05-16T05:00:31.886Z,1836.00
2019-05-16T05:03:31.562Z,2240.00
2019-05-16T05:06:31.268Z,2640.00
2019-05-16T05:09:31.505Z,3356.00
2019-05-16T05:12:31.340Z,4944.00
2019-05-16T05:15:30.606Z,6476.00
2019-05-16T05:18:30.294Z,6284.00
2019-05-16T05:21:31.206Z,6300.00
2019-05-16T05:24:30.246Z,6732.00
2019-05-16T05:27:30.264Z,6420.00
2019-05-16T05:30:30.325Z,7072.00
2019-05-16T05:33:30.199Z,7536.00
2019-05-16T05:36:30.074Z,6884.00
2019-05-16T05:39:30.322Z,5964.00
2019-05-16T05:42:30.573Z,4536.00
2019-05-16T05:45:30.503Z,3848.00
2019-05-16T05:48:30.704Z,3852.00
2019-05-16T05:51:30.094Z,4436.00
2019-05-16T05:54:30.672Z,5180.00
2019-05-16T05:57:30.053Z,5556.00
2019-05-16T06:00:30.335Z,5388.00
2019-05-16T06:03:32.375Z,5228.00
2019-05-16T06:06:30.348Z,5532.00
2019-05-16T06:09:30.107Z,5204.00
2019-05-16T06:12:30.317Z,4388.00
2019-05-16T06:15:27.961Z,3200.00
2019-05-16T06:18:30.290Z,2748.00
2019-05-16T06:21:33.110Z,3080.00
2019-05-16T06:24:30.518Z,3972.00
2019-05-16T06:27:30.159Z,4092.00
2019-05-16T06:30:30.214Z,3656.00
2019-05-16T06:33:30.337Z,3556.00
2019-05-16T06:36:27.747Z,3248.00
2019-05-16T06:39:39.195Z,3676.00
2019-05-16T06:42:29.928Z,5112.00
2019-05-16T06:45:27.637Z,5848.00
2019-05-16T06:48:30.167Z,6060.00
2019-05-16T06:51:27.566Z,6128.00
2019-05-16T06:54:29.734Z,7312.00
2019-05-16T06:57:30.015Z,6952.00
2019-05-16T07:00:29.889Z,6100.00
2019-05-16T07:03:27.450Z,5728.00
2019-05-16T07:06:48.406Z,5000.00
2019-05-16T07:09:30.116Z,4808.00
2019-05-16T07:12:27.356Z,5140.00
2019-05-16T07:15:27.313Z,6408.00
2019-05-16T07:18:27.287Z,7820.00
2019-05-16T07:21:27.252Z,9420.00
2019-05-16T07:24:27.231Z,11568.00
2019-05-16T07:27:27.221Z,12188.00
2019-05-16T07:30:27.143Z,11932.00
2019-05-16T07:33:27.129Z,12396.00
2019-05-16T07:36:27.091Z,13788.00
2019-05-16T07:39:27.066Z,11140.00
2019-05-16T07:42:27.053Z,9636.00
2019-05-16T07:45:27.034Z,8860.00
2019-05-16T07:48:26.964Z,7596.00
2019-05-16T07:51:26.956Z,6664.00
2019-05-16T07:54:26.883Z,7736.00
2019-05-16T07:57:26.896Z,8392.00
2019-05-16T08:00:45.753Z,10296.00
2019-05-16T08:03:30.184Z,10312.00
2019-05-16T08:06:26.753Z,9988.00
2019-05-16T08:09:26.751Z,9116.00
2019-05-16T08:12:27.221Z,9092.00
2019-05-16T08:15:26.654Z,10560.00
2019-05-16T08:18:26.648Z,12456.00
2019-05-16T08:21:27.729Z,17824.00
2019-05-16T08:24:26.594Z,15476.00
2019-05-16T08:27:26.526Z,13844.00
2019-05-16T08:30:26.516Z,10284.00
2019-05-16T08:33:26.490Z,7620.00
2019-05-16T08:36:26.432Z,6184.00
2019-05-16T08:39:26.418Z,5968.00
2019-05-16T08:42:26.425Z,6216.00
2019-05-16T08:45:26.400Z,7664.00
2019-05-16T08:48:26.321Z,10728.00
2019-05-16T08:51:26.300Z,9372.00
2019-05-16T08:54:26.257Z,11752.00
2019-05-16T08:57:27.758Z,10616.00
2019-05-16T09:00:27.230Z,8364.00
2019-05-16T09:03:26.152Z,7816.00
2019-05-16T09:06:26.127Z,8476.00
2019-05-16T09:09:41.034Z,9160.00
2019-05-16T09:12:27.901Z,6480.00
2019-05-16T09:15:27.411Z,5364.00
2019-05-16T09:18:28.918Z,5868.00
2019-05-16T09:21:27.606Z,6764.00
2019-05-16T09:24:27.237Z,5720.00
2019-05-16T09:27:27.336Z,5520.00
2019-05-16T09:30:27.479Z,5724.00
2019-05-16T09:33:26.993Z,5204.00
2019-05-16T09:36:28.055Z,5216.00
2019-05-16T09:39:27.755Z,4916.00
2019-05-16T09:42:32.778Z,5512.00
2019-05-16T09:45:27.230Z,6496.00
2019-05-16T09:48:28.054Z,6552.00
2019-05-16T09:51:27.180Z,6100.00
2019-05-16T09:54:27.338Z,5636.00
2019-05-16T09:57:27.778Z,5240.00
2019-05-16T10:00:26.962Z,4808.00
2019-05-16T10:03:27.102Z,5988.00
2019-05-16T10:06:27.587Z,7476.00
2019-05-16T10:09:40.288Z,7896.00
2019-05-16T10:12:26.404Z,7648.00
2019-05-16T10:15:26.956Z,7464.00
2019-05-16T10:18:27.655Z,7940.00
2019-05-16T10:21:27.163Z,7336.00
2019-05-16T10:24:26.890Z,6624.00
2019-05-16T10:27:26.480Z,7316.00
2019-05-16T10:30:26.960Z,8036.00
2019-05-16T10:33:27.536Z,9000.00
2019-05-16T10:36:27.938Z,9176.00
2019-05-16T10:39:26.782Z,8056.00
2019-05-16T10:42:28.940Z,7268.00
2019-05-16T10:45:27.158Z,8840.00
2019-05-16T10:48:26.990Z,9720.00
2019-05-16T10:51:26.923Z,8676.00
2019-05-16T10:54:27.404Z,7664.00
2019-05-16T10:57:29.392Z,7484.00
2019-05-16T11:00:57.235Z,7156.00
2019-05-16T11:03:27.680Z,6504.00
2019-05-16T11:06:28.836Z,6504.00
2019-05-16T11:09:24.793Z,7832.00
2019-05-16T11:12:43.195Z,8708.00
2019-05-16T11:15:27.801Z,9984.00
2019-05-16T11:18:26.907Z,9260.00
2019-05-16T11:21:26.721Z,8048.00
2019-05-16T11:24:28.989Z,8872.00
2019-05-16T11:27:24.582Z,9152.00
2019-05-16T11:30:24.657Z,7932.00
2019-05-16T11:33:24.527Z,6104.00
2019-05-16T11:36:26.645Z,5760.00
2019-05-16T11:39:24.491Z,7060.00
2019-05-16T11:42:24.414Z,9988.00
2019-05-16T11:45:24.389Z,9216.00
2019-05-16T11:48:25.338Z,10860.00
2019-05-16T11:51:26.610Z,8240.00
2019-05-16T11:54:26.464Z,6988.00
2019-05-16T11:57:24.271Z,7188.00
2019-05-16T12:00:24.272Z,6924.00
2019-05-16T12:03:24.184Z,7076.00
2019-05-16T12:06:26.625Z,6588.00
2019-05-16T12:09:24.133Z,5852.00
2019-05-16T12:12:24.109Z,6052.00
2019-05-16T12:15:24.060Z,5536.00
2019-05-16T12:18:26.384Z,5816.00
2019-05-16T12:21:24.002Z,6060.00
2019-05-16T12:24:33.038Z,5984.00
2019-05-16T12:27:31.800Z,5432.00
2019-05-16T12:30:24.904Z,7216.00
2019-05-16T12:33:23.889Z,7956.00
2019-05-16T12:36:26.328Z,7696.00
2019-05-16T12:39:26.673Z,7788.00
2019-05-16T12:42:23.786Z,8668.00
2019-05-16T12:45:23.729Z,9044.00
2019-05-16T12:48:23.719Z,10332.00
2019-05-16T12:51:23.663Z,9296.00
2019-05-16T12:54:23.665Z,7228.00
2019-05-16T12:57:27.696Z,7168.00
2019-05-16T13:00:24.601Z,5972.00
2019-05-16T13:03:23.542Z,5940.00
2019-05-16T13:06:23.524Z,7992.00
2019-05-16T13:09:23.490Z,9644.00
2019-05-16T13:12:23.459Z,10776.00
2019-05-16T13:15:23.439Z,9452.00
2019-05-16T13:18:23.400Z,7360.00
2019-05-16T13:21:23.353Z,6020.00
2019-05-16T13:24:23.307Z,5496.00
2019-05-16T13:27:23.503Z,5844.00
2019-05-16T13:30:23.264Z,5200.00
2019-05-16T13:33:23.260Z,4300.00
2019-05-16T13:36:23.219Z,3788.00
2019-05-16T13:39:23.150Z,3868.00
2019-05-16T13:42:23.143Z,4156.00
2019-05-16T13:45:23.086Z,4204.00
2019-05-16T13:48:23.070Z,4592.00
2019-05-16T13:51:23.049Z,3664.00
2019-05-16T13:54:22.985Z,3196.00
2019-05-16T13:57:22.962Z,3116.00
2019-05-16T14:00:22.925Z,3496.00
2019-05-16T14:03:22.905Z,3260.00
2019-05-16T14:06:22.858Z,4236.00
2019-05-16T14:09:22.836Z,4604.00
2019-05-16T14:12:22.812Z,4744.00
2019-05-16T14:15:22.750Z,5008.00
2019-05-16T14:18:22.731Z,3260.00
2019-05-16T14:21:22.692Z,3036.00
2019-05-16T14:24:22.672Z,2492.00
2019-05-16T14:27:22.615Z,3132.00
2019-05-16T14:30:22.612Z,2980.00
2019-05-16T14:33:22.551Z,2780.00
2019-05-16T14:36:22.535Z,2800.00
2019-05-16T14:39:22.489Z,3712.00
2019-05-16T14:42:22.494Z,3188.00
2019-05-16T14:45:22.452Z,3600.00
2019-05-16T14:48:22.394Z,3764.00
2019-05-16T14:51:22.379Z,3220.00
2019-05-16T14:54:22.335Z,3180.00
2019-05-16T14:57:22.289Z,2664.00
2019-05-16T15:00:22.275Z,3168.00
2019-05-16T15:03:22.226Z,3808.00
2019-05-16T15:06:22.215Z,3848.00
2019-05-16T15:09:22.160Z,2316.00
2019-05-16T15:12:22.146Z,2052.00
2019-05-16T15:15:24.758Z,2204.00
2019-05-16T15:18:23.080Z,2784.00
2019-05-16T15:21:22.067Z,3196.00
2019-05-16T15:24:21.989Z,2932.00
2019-05-16T15:27:21.988Z,2864.00
2019-05-16T15:30:21.921Z,3000.00
2019-05-16T15:33:21.911Z,2608.00
2019-05-16T15:36:21.865Z,2512.00
2019-05-16T15:39:21.853Z,2316.00
2019-05-16T15:42:27.768Z,2132.00
2019-05-16T15:45:38.130Z,2004.00
2019-05-16T15:48:22.745Z,1980.00
2019-05-16T15:51:21.687Z,1980.00
2019-05-16T15:54:21.694Z,1800.00
2019-05-16T15:57:21.639Z,1628.00
2019-05-16T16:00:21.592Z,1520.00
2019-05-16T16:03:21.578Z,1752.00
2019-05-16T16:06:21.529Z,1904.00
2019-05-16T16:09:21.515Z,1780.00
2019-05-16T16:12:21.457Z,1356.00
2019-05-16T16:15:21.459Z,1376.00
2019-05-16T16:18:22.067Z,1256.00
2019-05-16T16:21:21.363Z,1160.00
2019-05-16T16:24:21.348Z,1164.00
2019-05-16T16:27:21.294Z,992.00
2019-05-16T16:30:21.283Z,1204.00
2019-05-16T16:33:26.284Z,1240.00
2019-05-16T16:36:22.228Z,1328.00
2019-05-16T16:39:21.177Z,1544.00
2019-05-16T16:42:21.146Z,1488.00
2019-05-16T16:45:21.112Z,1344.00
2019-05-16T16:48:21.071Z,1252.00
2019-05-16T16:51:21.059Z,1532.00
2019-05-16T16:54:21.009Z,2132.00
2019-05-16T16:57:21.013Z,1740.00
2019-05-16T17:00:20.938Z,1688.00
2019-05-16T17:03:20.934Z,1732.00
2019-05-16T17:06:20.876Z,1392.00
2019-05-16T17:09:20.864Z,1436.00
2019-05-16T17:12:20.814Z,1252.00
2019-05-16T17:15:20.814Z,1060.00
2019-05-16T17:18:20.746Z,984.00
2019-05-16T17:21:20.737Z,832.00
2019-05-16T17:24:20.718Z,816.00
2019-05-16T17:27:20.687Z,832.00
2019-05-16T17:30:20.626Z,864.00
2019-05-16T17:33:20.598Z,860.00
2019-05-16T17:36:20.562Z,940.00
2019-05-16T17:39:20.541Z,948.00
2019-05-16T17:42:20.492Z,884.00
2019-05-16T17:45:20.475Z,892.00
2019-05-16T17:48:20.446Z,1212.00
2019-05-16T17:51:20.396Z,1268.00
2019-05-16T17:54:20.375Z,1148.00
2019-05-16T17:57:20.338Z,1100.00
2019-05-16T18:00:25.022Z,964.00
2019-05-16T18:03:21.265Z,752.00
2019-05-16T18:06:20.251Z,700.00
2019-05-16T18:09:20.212Z,604.00
2019-05-16T18:12:20.193Z,436.00
2019-05-16T18:15:20.148Z,336.00
2019-05-16T18:18:20.108Z,276.00
2019-05-16T18:21:20.098Z,252.00
2019-05-16T18:24:20.043Z,244.00
2019-05-16T18:27:20.037Z,228.00
2019-05-16T18:30:19.978Z,188.00
2019-05-16T18:33:19.980Z,148.00
2019-05-16T18:36:19.921Z,132.00
2019-05-16T18:39:19.915Z,120.00
2019-05-16T18:42:19.880Z,120.00
2019-05-16T18:45:19.816Z,132.00
2019-05-16T18:48:19.820Z,116.00
2019-05-16T18:51:19.754Z,108.00
2019-05-16T18:54:19.748Z,80.00
2019-05-16T18:57:19.687Z,72.00
2019-05-16T19:00:19.684Z,68.00
2019-05-16T19:03:19.625Z,56.00
2019-05-16T19:06:19.624Z,64.00
2019-05-16T19:09:19.582Z,72.00
2019-05-16T19:12:19.531Z,60.00
2019-05-16T19:15:19.510Z,52.00
2019-05-16T19:18:19.463Z,44.00
2019-05-16T19:21:19.449Z,36.00
2019-05-16T19:24:19.422Z,32.00
2019-05-16T19:27:19.364Z,24.00
2019-05-16T19:30:19.364Z,20.00
2019-05-16T19:33:19.324Z,8.00
2019-05-16T19:36:19.292Z,8.00
2019-05-16T19:39:19.240Z,8.00
2019-05-16T19:42:19.226Z,4.00
2019-05-16T19:45:19.182Z,4.00
2019-05-16T19:48:19.160Z,4.00
2019-05-16T19:51:19.139Z,0.00
2019-05-16T19:54:19.082Z,0.00
2019-05-16T19:57:19.077Z,0.00
2019-05-16T20:00:19.051Z,0.00
2019-05-16T20:03:19.012Z,0.00
2019-05-16T20:06:18.964Z,0.00
2019-05-16T20:09:18.937Z,0.00
2019-05-16T20:12:18.898Z,0.00
2019-05-16T20:15:18.887Z,0.00
2019-05-16T20:18:18.847Z,0.00
2019-05-16T20:21:18.823Z,0.00
2019-05-16T20:24:18.764Z,0.00
2019-05-16T20:27:19.477Z,0.00
2019-05-16T20:30:18.730Z,0.00
2019-05-16T20:33:18.671Z,0.00
2019-05-16T20:36:18.667Z,0.00
2019-05-16T20:39:18.627Z,0.00
2019-05-16T20:42:18.585Z,0.00
2019-05-16T20:45:18.550Z,0.00
2019-05-16T20:48:18.833Z,0.00
2019-05-16T20:51:20.274Z,0.00
2019-05-16T20:54:18.448Z,0.00
2019-05-16T20:57:18.437Z,0.00
2019-05-16T21:00:18.391Z,0.00
2019-05-16T21:03:18.396Z,0.00
2019-05-16T21:06:18.322Z,0.00
2019-05-16T21:09:18.305Z,0.00
2019-05-16T21:12:18.279Z,0.00
2019-05-16T21:15:18.225Z,0.00
2019-05-16T21:18:18.205Z,0.00
2019-05-16T21:21:19.388Z,0.00
2019-05-16T21:24:18.140Z,0.00
2019-05-16T21:27:19.119Z,0.00
2019-05-16T21:30:19.176Z,0.00
2019-05-16T21:33:18.664Z,0.00
2019-05-16T21:36:19.095Z,0.00
2019-05-16T21:39:17.982Z,0.00
2019-05-16T21:42:17.939Z,0.00
2019-05-16T21:45:28.271Z,0.00
2019-05-16T21:48:19.407Z,0.00
2019-05-16T21:51:19.642Z,0.00
2019-05-16T21:54:17.831Z,0.00
2019-05-16T21:57:19.854Z,0.00
2019-05-16T22:00:17.780Z,0.00
2019-05-16T22:03:17.737Z,0.00
2019-05-16T22:06:17.717Z,0.00
2019-05-16T22:09:17.693Z,0.00
2019-05-16T22:12:17.631Z,0.00
2019-05-16T22:15:17.609Z,0.00
2019-05-16T22:18:17.594Z,0.00
2019-05-16T22:21:17.558Z,0.00
2019-05-16T22:24:17.496Z,0.00
2019-05-16T22:27:17.485Z,0.00
2019-05-16T22:30:17.471Z,0.00
2019-05-16T22:33:17.873Z,0.00
2019-05-16T22:36:17.484Z,0.00
2019-05-16T22:39:17.456Z,0.00
2019-05-16T22:42:17.767Z,0.00
2019-05-16T22:45:17.697Z,0.00
2019-05-16T22:48:17.509Z,0.00
2019-05-16T22:51:17.213Z,0.00
2019-05-16T22:54:17.341Z,0.00
2019-05-16T22:57:17.749Z,0.00
2019-05-16T23:00:17.142Z,0.00
2019-05-16T23:03:17.507Z,0.00
2019-05-16T23:06:17.091Z,0.00
2019-05-16T23:09:17.075Z,0.00
2019-05-16T23:12:17.468Z,0.00
2019-05-16T23:15:17.223Z,0.00
2019-05-16T23:18:17.296Z,0.00
2019-05-16T23:21:17.132Z,0.00
2019-05-16T23:24:17.347Z,0.00
2019-05-16T23:27:16.868Z,0.00
2019-05-16T23:30:16.838Z,0.00
2019-05-16T23:33:16.782Z,0.00
2019-05-16T23:36:17.483Z,0.00
2019-05-16T23:39:16.731Z,0.00
2019-05-16T23:42:16.676Z,0.00
2019-05-16T23:45:17.288Z,0.00
2019-05-16T23:48:16.636Z,0.00
2019-05-16T23:51:17.011Z,0.00
2019-05-16T23:54:17.230Z,0.00
2019-05-16T23:57:16.515Z,0.00
